createdAt,value
2022-08-17T00:02:25.232Z,29.92
2022-08-17T00:04:54.368Z,31.20
2022-08-17T00:07:21.697Z,28.90
2022-08-17T00:09:48.611Z,32.90
2022-08-17T00:12:43.787Z,32.72
2022-08-17T00:15:03.930Z,34.80
2022-08-17T00:17:31.314Z,35.20
2022-08-17T00:20:00.501Z,35.17
2022-08-17T00:22:32.649Z,35.28
2022-08-17T00:25:07.615Z,33.03
2022-08-17T00:27:40.477Z,34.75
2022-08-17T00:30:11.329Z,33.85
2022-08-17T00:33:23.467Z,30.05
2022-08-17T00:35:35.545Z,30.48
2022-08-17T00:38:05.378Z,35.53
2022-08-17T00:40:40.601Z,34.67
2022-08-17T00:43:55.624Z,33.00
2022-08-17T00:49:38.707Z,35.38
2022-08-17T00:52:15.818Z,31.88
2022-08-17T00:54:54.594Z,31.95
2022-08-17T00:57:32.498Z,30.73
2022-08-17T01:00:09.554Z,31.35
2022-08-17T01:02:42.253Z,30.98
2022-08-17T01:05:16.459Z,29.67
2022-08-17T01:07:50.838Z,31.00
2022-08-17T01:11:00.679Z,30.60
2022-08-17T01:13:11.515Z,30.65
2022-08-17T01:15:41.668Z,34.90
2022-08-17T01:18:16.249Z,34.10
2022-08-17T01:20:54.490Z,35.35
2022-08-17T01:23:29.677Z,35.50
2022-08-17T01:26:00.976Z,34.80
2022-08-17T01:28:54.203Z,36.05
2022-08-17T01:31:34.069Z,37.65
2022-08-17T01:34:04.973Z,37.58
2022-08-17T01:36:31.931Z,38.17
2022-08-17T01:39:01.384Z,37.08
2022-08-17T01:41:36.771Z,35.45
2022-08-17T01:44:06.648Z,34.42
2022-08-17T01:46:36.388Z,34.75
2022-08-17T01:49:08.493Z,35.25
2022-08-17T01:51:35.596Z,34.47
2022-08-17T01:54:05.692Z,34.42
2022-08-17T01:56:35.639Z,37.05
2022-08-17T01:59:03.257Z,38.88
2022-08-17T02:01:32.416Z,37.75
2022-08-17T02:04:01.076Z,35.20
2022-08-17T02:06:52.558Z,38.05
2022-08-17T02:09:25.309Z,34.47
2022-08-17T02:11:56.748Z,36.47
2022-08-17T02:14:24.898Z,37.50
2022-08-17T02:17:02.015Z,36.38
2022-08-17T02:19:42.053Z,39.58
2022-08-17T02:22:36.247Z,37.55
2022-08-17T02:25:18.276Z,38.15
2022-08-17T02:28:24.797Z,38.97
2022-08-17T02:31:21.767Z,39.25
2022-08-17T02:34:10.140Z,37.67
2022-08-17T02:37:03.661Z,36.80
2022-08-17T02:39:32.599Z,35.88
2022-08-17T02:42:04.188Z,35.33
2022-08-17T02:44:39.877Z,37.83
2022-08-17T02:47:08.860Z,37.30
2022-08-17T02:49:36.237Z,37.05
2022-08-17T02:52:05.365Z,34.40
2022-08-17T02:54:39.963Z,37.08
2022-08-17T02:57:10.476Z,38.55
2022-08-17T02:59:46.813Z,34.33
2022-08-17T03:02:16.101Z,37.70
2022-08-17T03:04:43.116Z,34.92
2022-08-17T03:07:10.054Z,32.83
2022-08-17T03:09:36.922Z,35.53
2022-08-17T03:12:09.634Z,38.38
2022-08-17T03:14:41.551Z,38.67
2022-08-17T03:17:10.777Z,35.72
2022-08-17T03:19:43.098Z,37.42
2022-08-17T03:22:36.568Z,37.25
2022-08-17T03:25:09.294Z,34.42
2022-08-17T03:27:39.425Z,39.55
2022-08-17T03:30:15.829Z,37.85
2022-08-17T03:32:48.664Z,39.40
2022-08-17T03:35:22.265Z,35.60
2022-08-17T03:38:00.004Z,37.40
2022-08-17T03:40:34.626Z,36.67
2022-08-17T03:43:17.478Z,38.90
2022-08-17T03:46:03.261Z,36.83
2022-08-17T03:48:49.262Z,37.47
2022-08-17T03:51:43.118Z,36.15
2022-08-17T03:54:29.193Z,32.33
2022-08-17T03:57:05.729Z,36.25
2022-08-17T03:59:33.276Z,39.80
2022-08-17T04:02:09.106Z,39.47
2022-08-17T04:04:36.942Z,35.00
2022-08-17T04:07:04.238Z,36.50
2022-08-17T04:09:31.155Z,35.10
2022-08-17T04:12:02.443Z,39.35
2022-08-17T04:14:39.176Z,36.13
2022-08-17T04:17:31.082Z,38.38
2022-08-17T04:19:58.386Z,37.17
2022-08-17T04:22:44.414Z,37.90
2022-08-17T04:25:26.659Z,41.50
2022-08-17T04:28:04.369Z,36.33
2022-08-17T04:30:55.895Z,39.00
2022-08-17T04:36:39.215Z,34.55
2022-08-17T04:39:06.145Z,38.33
2022-08-17T04:41:51.623Z,40.70
2022-08-17T04:44:36.964Z,41.22
2022-08-17T04:47:05.253Z,41.70
2022-08-17T04:49:32.710Z,43.58
2022-08-17T04:52:04.378Z,42.28
2022-08-17T04:54:31.537Z,42.50
2022-08-17T04:57:01.736Z,40.17
2022-08-17T04:59:28.527Z,40.85
2022-08-17T05:01:55.601Z,40.55
2022-08-17T05:04:33.891Z,40.30
2022-08-17T05:07:01.720Z,40.33
2022-08-17T05:09:29.190Z,41.75
2022-08-17T05:11:56.282Z,38.88
2022-08-17T05:14:32.268Z,42.17
2022-08-17T05:17:11.756Z,39.60
2022-08-17T05:19:47.605Z,38.58
2022-08-17T05:22:50.554Z,37.40
2022-08-17T05:25:13.389Z,38.85
2022-08-17T05:27:43.259Z,38.55
2022-08-17T05:30:11.699Z,37.17
2022-08-17T05:33:08.910Z,36.33
2022-08-17T05:35:52.996Z,35.83
2022-08-17T05:38:21.501Z,34.63
2022-08-17T05:40:49.187Z,35.00
2022-08-17T05:43:22.831Z,36.45
2022-08-17T05:46:07.975Z,35.55
2022-08-17T05:48:47.002Z,35.65
2022-08-17T05:51:26.000Z,36.38
2022-08-17T05:54:24.493Z,34.97
2022-08-17T05:57:06.809Z,38.10
2022-08-17T05:59:59.069Z,36.60
2022-08-17T06:02:32.195Z,39.17
2022-08-17T06:05:11.213Z,35.05
2022-08-17T06:07:52.147Z,36.85
2022-08-17T06:10:32.423Z,38.60
2022-08-17T06:13:31.850Z,37.72
2022-08-17T06:16:31.104Z,37.28
2022-08-17T06:19:14.888Z,34.63
2022-08-17T06:21:46.312Z,35.70
2022-08-17T06:24:36.961Z,36.58
2022-08-17T06:27:16.381Z,33.25
2022-08-17T06:30:07.075Z,34.65
2022-08-17T06:32:39.332Z,32.10
2022-08-17T06:35:08.749Z,29.45
2022-08-17T06:38:38.548Z,30.17
2022-08-17T06:41:32.793Z,29.08
2022-08-17T06:48:08.454Z,27.92
2022-08-17T06:51:20.728Z,27.20
2022-08-17T07:01:12.401Z,29.67
2022-08-17T07:03:54.769Z,28.77
2022-08-17T07:06:37.999Z,28.70
2022-08-17T07:09:34.271Z,29.80
2022-08-17T07:13:07.239Z,26.88
2022-08-17T07:15:51.780Z,26.25
2022-08-17T07:21:55.195Z,25.90
2022-08-17T07:32:26.480Z,24.80
2022-08-17T07:42:46.762Z,22.20
2022-08-17T07:49:09.468Z,22.95
2022-08-17T07:51:57.397Z,23.60
2022-08-17T07:54:41.335Z,23.23
2022-08-17T07:57:12.837Z,23.02
2022-08-17T08:00:12.716Z,20.30
2022-08-17T08:02:47.446Z,21.45
2022-08-17T08:05:31.715Z,20.05
2022-08-17T08:08:21.741Z,19.95
2022-08-17T08:11:02.906Z,19.20
2022-08-17T08:13:32.561Z,22.08
2022-08-17T08:16:25.077Z,21.52
2022-08-17T08:18:57.564Z,20.58
2022-08-17T08:21:50.321Z,20.20
2022-08-17T08:24:45.089Z,22.00
2022-08-17T08:27:16.127Z,22.25
2022-08-17T08:29:49.348Z,22.13
2022-08-17T08:32:52.408Z,24.42
2022-08-17T08:35:34.780Z,23.58
2022-08-17T08:38:32.038Z,23.80
2022-08-17T08:41:24.724Z,24.05
2022-08-17T08:44:19.436Z,25.05
2022-08-17T08:47:14.482Z,26.45
2022-08-17T08:50:04.823Z,24.08
2022-08-17T08:52:56.294Z,26.48
2022-08-17T08:55:26.513Z,25.10
2022-08-17T08:58:01.102Z,23.85
2022-08-17T09:00:35.625Z,22.92
2022-08-17T09:03:11.485Z,22.65
2022-08-17T09:06:33.230Z,23.20
2022-08-17T09:09:29.343Z,23.17
2022-08-17T09:12:09.306Z,21.30
2022-08-17T09:14:47.193Z,22.05
2022-08-17T09:17:19.537Z,22.50
2022-08-17T09:20:01.298Z,21.63
2022-08-17T09:22:37.615Z,23.77
2022-08-17T09:25:12.775Z,23.30
2022-08-17T09:27:52.037Z,21.65
2022-08-17T09:30:20.646Z,22.40
2022-08-17T09:32:56.648Z,22.02
2022-08-17T09:35:36.471Z,23.52
2022-08-17T09:38:32.649Z,21.65
2022-08-17T09:41:12.592Z,22.23
2022-08-17T09:43:53.209Z,21.50
2022-08-17T09:46:31.952Z,21.77
2022-08-17T09:49:09.825Z,23.38
2022-08-17T09:52:02.684Z,22.40
2022-08-17T09:54:39.885Z,22.00
2022-08-17T09:57:28.443Z,23.50
2022-08-17T10:00:16.790Z,23.77
2022-08-17T10:03:21.919Z,24.00
2022-08-17T10:05:56.807Z,23.63
2022-08-17T10:08:41.576Z,23.95
2022-08-17T10:11:54.615Z,23.08
2022-08-17T10:15:07.742Z,23.20
2022-08-17T10:18:14.989Z,23.38
2022-08-17T10:20:46.688Z,24.80
2022-08-17T10:23:49.049Z,23.77
2022-08-17T10:26:27.385Z,25.02
2022-08-17T10:29:10.215Z,24.30
2022-08-17T10:31:48.591Z,24.95
2022-08-17T10:35:10.114Z,27.60
2022-08-17T10:38:04.726Z,23.30
2022-08-17T10:40:57.740Z,26.33
2022-08-17T10:44:02.204Z,25.90
2022-08-17T10:47:06.759Z,24.30
2022-08-17T10:49:36.833Z,25.30
2022-08-17T10:52:25.066Z,27.13
2022-08-17T10:54:58.006Z,26.17
2022-08-17T10:57:32.206Z,24.65
2022-08-17T11:00:01.827Z,26.55
2022-08-17T11:02:53.351Z,28.65
2022-08-17T11:05:46.907Z,30.17
2022-08-17T11:08:13.847Z,28.60
2022-08-17T11:11:36.115Z,29.95
2022-08-17T11:14:17.363Z,29.17
2022-08-17T11:17:02.623Z,27.88
2022-08-17T11:20:11.624Z,27.45
2022-08-17T11:23:12.907Z,28.77
2022-08-17T11:25:41.609Z,27.52
2022-08-17T11:28:22.193Z,29.98
2022-08-17T11:30:52.542Z,30.60
2022-08-17T11:33:36.769Z,30.05
2022-08-17T11:36:33.040Z,29.52
2022-08-17T11:39:06.041Z,29.52
2022-08-17T11:42:05.851Z,28.92
2022-08-17T11:44:47.143Z,30.38
2022-08-17T11:48:26.736Z,30.02
2022-08-17T11:51:19.478Z,27.58
2022-08-17T11:53:46.626Z,28.75
2022-08-17T11:56:44.243Z,32.92
2022-08-17T11:59:45.234Z,25.27
2022-08-17T12:02:35.497Z,30.85
2022-08-17T12:05:17.533Z,31.52
2022-08-17T12:08:06.156Z,33.17
2022-08-17T12:10:37.540Z,32.53
2022-08-17T12:13:15.040Z,33.03
2022-08-17T12:15:50.238Z,33.95
2022-08-17T12:18:32.789Z,30.60
2022-08-17T12:21:29.762Z,31.98
2022-08-17T12:24:00.739Z,33.03
2022-08-17T12:26:38.874Z,35.30
2022-08-17T12:29:38.868Z,35.65
2022-08-17T12:32:04.894Z,33.75
2022-08-17T12:34:42.087Z,34.60
2022-08-17T12:37:31.691Z,36.22
2022-08-17T12:40:24.425Z,37.55
2022-08-17T12:43:23.509Z,33.58
2022-08-17T12:46:13.291Z,37.75
2022-08-17T12:48:56.606Z,36.60
2022-08-17T12:51:36.791Z,36.05
2022-08-17T12:54:04.473Z,35.72
2022-08-17T12:56:32.262Z,36.63
2022-08-17T12:59:00.184Z,37.25
2022-08-17T13:01:29.661Z,36.20
2022-08-17T13:04:00.100Z,35.15
2022-08-17T13:06:36.073Z,37.53
2022-08-17T13:09:15.922Z,38.63
2022-08-17T13:11:54.566Z,37.25
2022-08-17T13:14:22.584Z,38.58
2022-08-17T13:16:54.183Z,37.85
2022-08-17T13:19:40.498Z,37.05
2022-08-17T13:22:12.275Z,39.58
2022-08-17T13:24:49.550Z,39.22
2022-08-17T13:27:21.622Z,39.25
2022-08-17T13:29:57.525Z,41.35
2022-08-17T13:32:31.084Z,38.30
2022-08-17T13:35:14.413Z,41.15
2022-08-17T13:38:07.953Z,40.78
2022-08-17T13:40:43.286Z,43.88
2022-08-17T13:43:12.148Z,41.45
2022-08-17T13:45:51.337Z,45.17
2022-08-17T13:48:34.173Z,43.30
2022-08-17T13:51:02.449Z,36.75
2022-08-17T13:53:40.144Z,42.65
2022-08-17T13:56:33.321Z,40.53
2022-08-17T13:59:06.752Z,44.33
2022-08-17T14:01:51.064Z,43.17
2022-08-17T14:04:24.155Z,43.80
2022-08-17T14:07:01.276Z,44.50
2022-08-17T14:09:48.779Z,42.88
2022-08-17T14:12:20.397Z,38.50
2022-08-17T14:14:47.756Z,47.35
2022-08-17T14:17:15.156Z,48.03
2022-08-17T14:19:42.245Z,44.97
2022-08-17T14:22:17.896Z,46.97
2022-08-17T14:24:45.581Z,45.35
2022-08-17T14:27:12.569Z,50.13
2022-08-17T14:29:41.338Z,50.92
2022-08-17T14:32:17.573Z,42.85
2022-08-17T14:34:53.019Z,53.20
2022-08-17T14:37:25.569Z,50.50
2022-08-17T14:40:02.415Z,49.88
2022-08-17T14:42:34.254Z,49.35
2022-08-17T14:45:27.013Z,55.38
2022-08-17T14:48:00.569Z,53.35
2022-08-17T14:50:31.910Z,53.20
2022-08-17T14:53:01.576Z,52.50
2022-08-17T14:58:27.431Z,52.30
2022-08-17T15:01:01.462Z,53.03
2022-08-17T15:04:05.760Z,49.00
2022-08-17T15:06:39.525Z,45.22
2022-08-17T15:09:09.208Z,45.25
2022-08-17T15:11:36.899Z,43.35
2022-08-17T15:14:13.643Z,41.38
2022-08-17T15:16:40.899Z,39.05
2022-08-17T15:19:08.872Z,42.63
2022-08-17T15:21:37.146Z,37.42
2022-08-17T15:24:05.325Z,39.67
2022-08-17T15:26:32.949Z,33.28
2022-08-17T15:29:00.348Z,34.72
2022-08-17T15:31:31.794Z,35.97
2022-08-17T15:34:01.709Z,35.05
2022-08-17T15:36:29.231Z,38.00
2022-08-17T15:38:56.473Z,38.08
2022-08-17T15:41:23.989Z,42.00
2022-08-17T15:46:35.874Z,41.45
2022-08-17T15:49:04.434Z,39.75
2022-08-17T15:51:36.627Z,40.20
2022-08-17T15:54:19.392Z,42.60
2022-08-17T15:56:50.860Z,43.13
2022-08-17T15:59:20.755Z,41.35
2022-08-17T16:03:12.934Z,42.15
2022-08-17T16:04:45.873Z,44.28
2022-08-17T16:07:26.713Z,45.38
2022-08-17T16:09:54.162Z,41.88
2022-08-17T16:12:24.781Z,45.05
2022-08-17T16:14:55.588Z,42.75
2022-08-17T16:17:38.503Z,46.30
2022-08-17T16:20:10.064Z,45.70
2022-08-17T16:22:50.828Z,44.70
2022-08-17T16:25:40.290Z,44.22
2022-08-17T16:28:43.267Z,47.58
2022-08-17T16:31:18.002Z,43.20
2022-08-17T16:34:16.100Z,45.63
2022-08-17T16:36:51.715Z,45.38
2022-08-17T16:39:26.069Z,45.42
2022-08-17T16:42:02.582Z,50.10
2022-08-17T16:44:43.742Z,45.35
2022-08-17T16:47:46.171Z,45.05
2022-08-17T16:50:27.926Z,42.25
2022-08-17T16:53:44.728Z,44.88
2022-08-17T16:56:23.346Z,49.65
2022-08-17T16:58:59.886Z,46.38
2022-08-17T17:02:13.836Z,46.45
2022-08-17T17:05:26.627Z,45.67
2022-08-17T17:08:23.266Z,43.25
2022-08-17T17:11:00.729Z,44.10
2022-08-17T17:13:56.983Z,45.00
2022-08-17T17:17:21.265Z,44.85
2022-08-17T17:20:01.807Z,42.72
2022-08-17T17:22:57.020Z,43.35
2022-08-17T17:25:50.838Z,42.45
2022-08-17T17:28:44.704Z,42.70
2022-08-17T17:31:20.403Z,39.00
2022-08-17T17:34:15.200Z,40.67
2022-08-17T17:40:08.941Z,39.08
2022-08-17T17:43:27.341Z,41.80
2022-08-17T17:46:29.385Z,42.72
2022-08-17T17:49:38.505Z,45.50
2022-08-17T17:52:42.802Z,40.85
2022-08-17T17:55:41.625Z,39.95
2022-08-17T17:58:37.064Z,41.20
2022-08-17T18:01:41.517Z,39.55
2022-08-17T18:04:44.724Z,39.38
2022-08-17T18:07:57.955Z,38.13
2022-08-17T18:15:00.123Z,37.45
2022-08-17T18:18:20.568Z,36.75
2022-08-17T18:31:56.110Z,41.58
2022-08-17T18:39:01.941Z,40.25
2022-08-17T18:41:54.436Z,42.13
2022-08-17T18:45:29.778Z,39.97
2022-08-17T18:48:20.657Z,41.35
2022-08-17T18:54:57.213Z,44.53
2022-08-17T19:01:10.555Z,44.72
2022-08-17T19:07:38.760Z,48.28
2022-08-17T19:10:29.695Z,48.22
2022-08-17T19:13:13.871Z,46.63
2022-08-17T19:15:41.011Z,46.13
2022-08-17T19:18:24.216Z,48.40
2022-08-17T19:21:11.302Z,49.45
2022-08-17T19:23:54.181Z,48.75
2022-08-17T19:26:54.600Z,50.42
2022-08-17T19:29:30.116Z,49.95
2022-08-17T19:31:58.868Z,50.65
2022-08-17T19:34:33.637Z,48.67
2022-08-17T19:37:27.459Z,45.13
2022-08-17T19:43:40.588Z,52.83
2022-08-17T19:46:28.949Z,52.05
2022-08-17T19:49:34.503Z,53.83
2022-08-17T19:52:43.180Z,61.00
2022-08-17T19:55:20.585Z,49.47
2022-08-17T19:58:01.298Z,45.92
2022-08-17T20:00:29.237Z,53.08
2022-08-17T20:03:08.093Z,54.38
2022-08-17T20:06:11.536Z,54.78
2022-08-17T20:08:45.553Z,55.42
2022-08-17T20:11:23.337Z,47.08
2022-08-17T20:14:00.016Z,51.78
2022-08-17T20:16:27.047Z,55.33
2022-08-17T20:19:00.427Z,52.15
2022-08-17T20:21:50.505Z,50.22
2022-08-17T20:24:28.867Z,48.67
2022-08-17T20:26:59.655Z,49.28
2022-08-17T20:29:39.677Z,49.30
2022-08-17T20:32:17.699Z,45.25
2022-08-17T20:35:00.236Z,46.65
2022-08-17T20:37:31.906Z,47.20
2022-08-17T20:39:58.748Z,45.35
2022-08-17T20:42:27.122Z,42.72
2022-08-17T20:45:02.341Z,47.00
2022-08-17T20:47:34.076Z,49.85
2022-08-17T20:50:41.488Z,45.53
2022-08-17T20:53:13.570Z,49.00
2022-08-17T20:55:52.225Z,48.08
2022-08-17T20:58:30.990Z,45.63
2022-08-17T21:00:58.732Z,36.88
2022-08-17T21:03:28.369Z,42.58
2022-08-17T21:06:18.528Z,39.58
2022-08-17T21:08:58.765Z,41.33
2022-08-17T21:11:57.060Z,41.05
2022-08-17T21:14:31.601Z,41.45
2022-08-17T21:17:29.580Z,37.00
2022-08-17T21:20:10.981Z,37.03
2022-08-17T21:22:38.472Z,37.30
2022-08-17T21:25:34.984Z,34.92
2022-08-17T21:28:30.043Z,36.13
2022-08-17T21:31:08.932Z,36.90
2022-08-17T21:33:39.738Z,37.28
2022-08-17T21:36:12.557Z,37.47
2022-08-17T21:38:53.442Z,37.40
2022-08-17T21:41:34.347Z,38.75
2022-08-17T21:44:18.597Z,36.70
2022-08-17T21:46:50.180Z,35.58
2022-08-17T21:49:20.232Z,36.00
2022-08-17T21:51:54.267Z,33.60
2022-08-17T21:54:31.761Z,33.58
2022-08-17T21:57:00.769Z,33.45
2022-08-17T21:59:39.355Z,32.92
2022-08-17T22:02:19.087Z,33.35
2022-08-17T22:04:58.536Z,32.47
2022-08-17T22:07:38.766Z,31.50
2022-08-17T22:10:08.573Z,33.67
2022-08-17T22:12:35.516Z,33.50
2022-08-17T22:15:07.440Z,34.17
2022-08-17T22:17:45.396Z,31.90
2022-08-17T22:20:22.621Z,33.05
2022-08-17T22:23:08.031Z,32.33
2022-08-17T22:25:41.183Z,31.23
2022-08-17T22:28:12.234Z,31.17
2022-08-17T22:31:01.550Z,30.50
2022-08-17T22:33:43.126Z,32.92
2022-08-17T22:36:29.443Z,32.22
2022-08-17T22:38:58.271Z,28.67
2022-08-17T22:41:32.124Z,29.77
2022-08-17T22:44:09.123Z,29.10
2022-08-17T22:46:40.928Z,32.08
2022-08-17T22:49:08.365Z,31.10
2022-08-17T22:51:36.369Z,28.67
2022-08-17T22:54:35.535Z,29.95
2022-08-17T22:57:24.033Z,30.48
2022-08-17T22:59:55.621Z,27.08
2022-08-17T23:02:32.249Z,29.73
2022-08-17T23:05:14.382Z,30.33
2022-08-17T23:07:42.518Z,25.67
2022-08-17T23:10:11.606Z,29.58
2022-08-17T23:12:39.904Z,27.73
2022-08-17T23:15:19.032Z,26.77
2022-08-17T23:17:46.042Z,28.77
2022-08-17T23:20:15.148Z,27.50
2022-08-17T23:22:52.081Z,24.45
2022-08-17T23:25:26.878Z,24.48
2022-08-17T23:27:54.554Z,24.92
2022-08-17T23:30:27.288Z,25.33
2022-08-17T23:32:55.863Z,23.25
2022-08-17T23:35:39.189Z,23.30
2022-08-17T23:38:11.302Z,23.30
2022-08-17T23:40:47.126Z,23.10
2022-08-17T23:43:25.726Z,23.20
2022-08-17T23:46:03.981Z,21.73
2022-08-17T23:48:36.932Z,24.30
2022-08-17T23:51:08.669Z,23.70
2022-08-17T23:53:36.763Z,23.63
2022-08-17T23:56:09.424Z,22.60
2022-08-17T23:58:44.998Z,22.30
